createdAt,value
2019-05-06T00:00:56.547Z,28.60
2019-05-06T00:05:54.320Z,35.63
2019-05-06T00:10:56.335Z,29.50
2019-05-06T00:15:58.159Z,29.20
2019-05-06T00:21:00.286Z,26.63
2019-05-06T00:26:13.642Z,29.30
2019-05-06T00:31:17.294Z,26.10
2019-05-06T00:36:18.828Z,48.47
2019-05-06T00:41:25.584Z,25.27
2019-05-06T00:46:30.041Z,31.87
2019-05-06T00:51:33.677Z,26.70
2019-05-06T00:56:35.691Z,28.13
2019-05-06T01:01:37.239Z,27.80
2019-05-06T01:06:39.910Z,32.83
2019-05-06T01:11:41.780Z,45.77
2019-05-06T01:16:43.939Z,34.63
2019-05-06T01:21:46.128Z,36.43
2019-05-06T01:26:48.178Z,31.90
2019-05-06T01:31:50.163Z,24.97
2019-05-06T01:36:54.394Z,27.57
2019-05-06T01:42:04.433Z,28.93
2019-05-06T01:47:06.855Z,38.23
2019-05-06T01:52:08.330Z,24.73
2019-05-06T01:57:09.859Z,28.07
2019-05-06T02:02:11.428Z,25.83
2019-05-06T02:07:14.436Z,17.10
2019-05-06T02:12:16.354Z,18.07
2019-05-06T02:17:17.888Z,19.80
2019-05-06T02:22:26.970Z,40.23
2019-05-06T02:27:28.526Z,37.93
2019-05-06T02:32:35.475Z,35.33
2019-05-06T02:37:39.784Z,35.00
2019-05-06T02:42:43.166Z,36.07
2019-05-06T02:47:53.555Z,41.43
2019-05-06T02:52:53.959Z,40.60
2019-05-06T02:57:55.960Z,36.53
2019-05-06T03:02:57.500Z,37.83
2019-05-06T03:07:59.125Z,35.70
2019-05-06T03:13:04.026Z,36.73
2019-05-06T03:18:07.303Z,36.20
2019-05-06T03:23:14.476Z,37.10
2019-05-06T03:28:16.215Z,47.77
2019-05-06T03:33:40.107Z,37.33
2019-05-06T03:38:22.925Z,37.13
2019-05-06T03:43:24.743Z,39.30
2019-05-06T03:48:33.270Z,39.63
2019-05-06T03:53:34.749Z,41.90
2019-05-06T03:58:37.677Z,50.70
2019-05-06T04:03:47.275Z,39.50
2019-05-06T04:08:43.923Z,41.33
2019-05-06T04:13:47.668Z,50.40
2019-05-06T04:19:03.892Z,33.03
2019-05-06T04:24:09.686Z,32.77
2019-05-06T04:29:13.043Z,36.70
2019-05-06T04:34:19.424Z,36.50
2019-05-06T04:39:19.176Z,35.03
2019-05-06T04:44:23.780Z,33.20
2019-05-06T04:49:24.991Z,43.33
2019-05-06T04:54:26.883Z,50.00
2019-05-06T04:59:29.219Z,29.53
2019-05-06T05:04:33.626Z,38.30
2019-05-06T05:09:35.165Z,33.27
2019-05-06T05:14:42.340Z,29.20
2019-05-06T05:19:44.666Z,33.70
2019-05-06T05:24:46.237Z,43.07
2019-05-06T05:29:48.265Z,27.30
2019-05-06T05:34:52.219Z,44.87
2019-05-06T05:39:56.006Z,46.40
2019-05-06T05:44:57.533Z,37.23
2019-05-06T05:50:16.429Z,29.17
2019-05-06T05:55:18.730Z,25.30
2019-05-06T06:00:22.427Z,27.60
2019-05-06T06:05:24.403Z,27.90
2019-05-06T06:10:42.590Z,35.87
2019-05-06T06:16:02.952Z,37.63
2019-05-06T06:21:28.109Z,25.30
2019-05-06T06:26:27.675Z,26.60
2019-05-06T06:31:37.077Z,20.27
2019-05-06T06:36:58.172Z,17.73
2019-05-06T06:41:59.809Z,9.90
2019-05-06T06:47:02.245Z,17.87
2019-05-06T06:52:10.876Z,24.30
2019-05-06T06:57:16.770Z,14.83
2019-05-06T07:02:35.990Z,12.57
2019-05-06T07:07:43.386Z,15.17
2019-05-06T07:12:42.691Z,25.07
2019-05-06T07:17:44.994Z,24.90
2019-05-06T07:22:46.542Z,22.57
2019-05-06T07:27:48.134Z,24.47
2019-05-06T07:32:50.069Z,24.80
2019-05-06T07:37:53.073Z,23.30
2019-05-06T07:42:57.045Z,14.23
2019-05-06T07:48:03.561Z,13.40
2019-05-06T07:53:06.554Z,14.77
2019-05-06T07:58:08.122Z,19.67
2019-05-06T08:03:09.756Z,19.90
2019-05-06T08:08:12.952Z,28.10
2019-05-06T08:13:14.558Z,12.77
2019-05-06T08:18:16.071Z,14.50
2019-05-06T08:23:35.180Z,10.43
2019-05-06T08:28:41.406Z,12.80
2019-05-06T08:33:40.275Z,20.13
2019-05-06T08:38:59.754Z,14.90
2019-05-06T08:44:02.611Z,48.80
2019-05-06T08:49:04.994Z,17.60
2019-05-06T08:54:27.069Z,20.83
2019-05-06T08:59:29.076Z,14.90
2019-05-06T09:04:32.093Z,14.97
2019-05-06T09:09:34.543Z,8.17
2019-05-06T09:14:37.566Z,14.63
2019-05-06T09:19:39.561Z,12.07
2019-05-06T09:24:42.699Z,17.80
2019-05-06T09:29:46.646Z,12.23
2019-05-06T09:34:52.775Z,7.10
2019-05-06T09:39:53.987Z,15.53
2019-05-06T09:44:55.928Z,12.67
2019-05-06T09:49:57.463Z,8.80
2019-05-06T10:00:09.825Z,9.47
2019-05-06T10:05:11.992Z,12.13
2019-05-06T10:10:13.734Z,15.80
2019-05-06T10:15:16.978Z,11.30
2019-05-06T10:20:18.928Z,13.70
2019-05-06T10:25:22.652Z,17.77
2019-05-06T10:30:28.448Z,20.97
2019-05-06T10:35:32.682Z,10.13
2019-05-06T10:41:03.606Z,11.53
2019-05-06T10:46:01.111Z,10.73
2019-05-06T10:51:16.845Z,8.40
2019-05-06T10:56:28.544Z,5.67
2019-05-06T11:01:33.140Z,18.57
2019-05-06T11:06:35.619Z,9.40
2019-05-06T11:11:38.637Z,6.53
2019-05-06T11:16:40.543Z,19.73
2019-05-06T11:21:45.060Z,21.50
2019-05-06T11:26:46.320Z,17.93
2019-05-06T11:31:49.938Z,9.60
2019-05-06T11:36:53.717Z,9.30
2019-05-06T11:42:14.904Z,11.30
2019-05-06T11:46:58.959Z,6.00
2019-05-06T11:52:09.681Z,15.17
2019-05-06T11:57:14.436Z,9.57
2019-05-06T12:02:21.878Z,12.23
2019-05-06T12:07:24.737Z,9.73
2019-05-06T12:12:26.281Z,7.40
2019-05-06T12:17:27.917Z,11.00
2019-05-06T12:22:35.914Z,17.30
2019-05-06T12:27:43.412Z,28.00
2019-05-06T12:38:05.192Z,17.57
2019-05-06T12:43:24.018Z,31.27
2019-05-06T12:48:33.047Z,20.90
2019-05-06T12:53:33.964Z,20.80
2019-05-06T12:58:43.933Z,16.00
2019-05-06T13:03:44.668Z,14.13
2019-05-06T13:08:58.596Z,24.00
2019-05-06T13:13:59.825Z,30.07
2019-05-06T13:18:58.240Z,23.83
2019-05-06T13:24:04.753Z,39.40
2019-05-06T13:29:09.145Z,33.13
2019-05-06T13:34:12.645Z,26.20
2019-05-06T13:39:15.488Z,36.70
2019-05-06T13:44:17.547Z,33.97
2019-05-06T13:49:22.718Z,32.87
2019-05-06T13:54:24.561Z,34.10
2019-05-06T13:59:30.917Z,30.07
2019-05-06T14:04:34.414Z,27.37
2019-05-06T14:09:40.231Z,31.17
2019-05-06T14:14:39.807Z,32.17
2019-05-06T14:19:42.834Z,27.07
2019-05-06T14:24:46.885Z,24.23
2019-05-06T14:30:04.491Z,29.97
2019-05-06T14:35:06.468Z,28.30
2019-05-06T14:40:11.879Z,27.13
2019-05-06T14:45:14.786Z,28.37
2019-05-06T14:50:18.413Z,27.70
2019-05-06T14:55:22.667Z,24.70
2019-05-06T15:00:24.936Z,26.10
2019-05-06T15:05:33.354Z,26.33
2019-05-06T15:10:42.845Z,28.10
2019-05-06T15:15:45.133Z,30.93
2019-05-06T15:20:46.748Z,32.67
2019-05-06T15:25:48.285Z,35.10
2019-05-06T15:30:57.489Z,39.03
2019-05-06T15:36:02.398Z,39.40
2019-05-06T15:41:05.605Z,41.27
2019-05-06T15:46:07.167Z,42.00
2019-05-06T15:51:09.256Z,40.37
2019-05-06T15:56:12.284Z,41.00
2019-05-06T16:01:14.504Z,41.67
2019-05-06T16:06:16.833Z,38.93
2019-05-06T16:11:18.334Z,40.37
2019-05-06T16:16:23.423Z,39.53
2019-05-06T16:21:28.103Z,40.90
2019-05-06T16:26:30.512Z,40.90
2019-05-06T16:31:33.544Z,40.53
2019-05-06T16:36:36.654Z,39.80
2019-05-06T16:41:38.220Z,40.60
2019-05-06T16:46:39.835Z,42.23
2019-05-06T16:51:43.900Z,41.03
2019-05-06T16:56:49.536Z,41.77
2019-05-06T17:01:52.298Z,40.77
2019-05-06T17:06:54.930Z,40.83
2019-05-06T17:11:57.944Z,42.00
2019-05-06T17:16:59.616Z,42.50
2019-05-06T17:22:02.990Z,41.10
2019-05-06T17:27:05.200Z,40.20
2019-05-06T17:32:25.781Z,40.50
2019-05-06T17:37:47.296Z,41.10
2019-05-06T17:42:48.981Z,41.87
2019-05-06T17:47:52.996Z,41.10
2019-05-06T17:52:55.511Z,41.67
2019-05-06T17:57:57.656Z,40.70
2019-05-06T18:02:59.749Z,40.57
2019-05-06T18:08:02.906Z,46.40
2019-05-06T18:13:07.335Z,40.10
2019-05-06T18:18:09.332Z,38.80
2019-05-06T18:23:12.944Z,38.43
2019-05-06T18:28:22.696Z,36.23
2019-05-06T18:33:24.993Z,41.57
2019-05-06T18:38:28.432Z,35.63
2019-05-06T18:43:33.218Z,27.30
2019-05-06T18:48:35.926Z,25.97
2019-05-06T18:53:39.732Z,27.07
2019-05-06T18:58:43.019Z,30.00
2019-05-06T19:04:03.987Z,27.30
2019-05-06T19:09:12.669Z,28.33
2019-05-06T19:14:15.363Z,33.77
2019-05-06T19:19:17.684Z,29.33
2019-05-06T19:24:19.883Z,39.10
2019-05-06T19:29:23.232Z,31.20
2019-05-06T19:34:25.570Z,31.07
2019-05-06T19:39:27.826Z,24.97
2019-05-06T19:44:29.654Z,26.77
2019-05-06T19:49:32.775Z,34.93
2019-05-06T19:54:35.288Z,24.63
2019-05-06T19:59:38.198Z,24.23
2019-05-06T20:04:44.081Z,24.47
2019-05-06T20:09:47.793Z,27.20
2019-05-06T20:14:52.367Z,25.53
2019-05-06T20:19:54.088Z,26.73
2019-05-06T20:24:56.329Z,23.87
2019-05-06T20:29:57.846Z,22.57
2019-05-06T20:34:59.616Z,24.50
2019-05-06T20:40:02.446Z,23.20
2019-05-06T20:45:05.855Z,17.83
2019-05-06T20:50:09.124Z,20.87
2019-05-06T20:55:13.695Z,26.43
2019-05-06T21:00:16.709Z,13.17
2019-05-06T21:05:18.665Z,16.20
2019-05-06T21:10:22.041Z,13.63
2019-05-06T21:15:26.740Z,22.10
2019-05-06T21:20:28.408Z,20.47
2019-05-06T21:25:32.605Z,16.77
2019-05-06T21:30:34.115Z,14.33
2019-05-06T21:35:35.580Z,14.73
2019-05-06T21:40:37.393Z,17.77
2019-05-06T21:45:39.037Z,14.93
2019-05-06T21:50:42.690Z,23.63
2019-05-06T21:55:44.709Z,15.07
2019-05-06T22:00:58.472Z,18.50
2019-05-06T22:06:04.263Z,20.37
2019-05-06T22:11:09.122Z,15.43
2019-05-06T22:16:15.552Z,14.70
2019-05-06T22:21:22.524Z,10.30
2019-05-06T22:26:24.968Z,10.47
2019-05-06T22:31:27.006Z,12.10
2019-05-06T22:36:28.504Z,19.13
2019-05-06T22:41:29.924Z,16.10
2019-05-06T22:46:32.940Z,21.53
2019-05-06T22:51:35.154Z,20.00
2019-05-06T22:56:36.579Z,14.27
2019-05-06T23:01:46.233Z,22.90
2019-05-06T23:06:47.871Z,27.80
2019-05-06T23:11:49.867Z,20.90
2019-05-06T23:16:52.161Z,28.63
2019-05-06T23:21:54.001Z,26.87
2019-05-06T23:26:56.226Z,23.13
2019-05-06T23:31:57.758Z,23.07
2019-05-06T23:37:03.039Z,22.67
2019-05-06T23:42:42.594Z,24.40
2019-05-06T23:48:22.860Z,16.80
2019-05-06T23:54:03.180Z,27.07
2019-05-06T23:59:04.927Z,26.73
